sensor_id;sensor_type;location;lat;lon;timestamp;pressure;altitude;pressure_sealevel;temperature;humidity
16793;BME280;8513;42.662;23.350;2023-05-12T00:01:11;95154.97;;;11.40;52.48
16793;BME280;8513;42.662;23.350;2023-05-12T00:03:38;95148.66;;;11.33;52.55
16793;BME280;8513;42.662;23.350;2023-05-12T00:06:04;95160.25;;;11.40;52.32
16793;BME280;8513;42.662;23.350;2023-05-12T00:08:30;95146.56;;;11.36;52.26
16793;BME280;8513;42.662;23.350;2023-05-12T00:10:56;95144.63;;;11.46;52.07
16793;BME280;8513;42.662;23.350;2023-05-12T00:13:22;95150.91;;;11.27;52.32
16793;BME280;8513;42.662;23.350;2023-05-12T00:15:49;95145.75;;;11.18;52.70
16793;BME280;8513;42.662;23.350;2023-05-12T00:18:15;95144.25;;;10.97;53.36
16793;BME280;8513;42.662;23.350;2023-05-12T00:20:40;95148.53;;;10.98;53.46
16793;BME280;8513;42.662;23.350;2023-05-12T00:23:06;95142.94;;;10.93;53.75
16793;BME280;8513;42.662;23.350;2023-05-12T00:25:32;95144.94;;;10.99;53.30
16793;BME280;8513;42.662;23.350;2023-05-12T00:27:57;95150.59;;;11.04;53.17
16793;BME280;8513;42.662;23.350;2023-05-12T00:30:23;95150.88;;;11.01;53.52
16793;BME280;8513;42.662;23.350;2023-05-12T00:32:48;95153.44;;;10.93;53.95
16793;BME280;8513;42.662;23.350;2023-05-12T00:35:15;95155.84;;;11.04;53.58
16793;BME280;8513;42.662;23.350;2023-05-12T00:37:40;95153.34;;;10.85;54.86
16793;BME280;8513;42.662;23.350;2023-05-12T00:40:07;95151.00;;;10.82;55.62
16793;BME280;8513;42.662;23.350;2023-05-12T00:42:33;95155.16;;;10.85;55.77
16793;BME280;8513;42.662;23.350;2023-05-12T00:44:59;95157.94;;;10.83;56.02
16793;BME280;8513;42.662;23.350;2023-05-12T00:47:24;95162.00;;;10.77;56.59
16793;BME280;8513;42.662;23.350;2023-05-12T00:49:50;95160.88;;;10.80;56.94
16793;BME280;8513;42.662;23.350;2023-05-12T00:52:15;95158.81;;;10.74;56.64
16793;BME280;8513;42.662;23.350;2023-05-12T00:54:41;95161.53;;;10.64;57.85
16793;BME280;8513;42.662;23.350;2023-05-12T00:57:09;95161.25;;;10.67;57.90
16793;BME280;8513;42.662;23.350;2023-05-12T00:59:35;95165.38;;;10.70;57.55
16793;BME280;8513;42.662;23.350;2023-05-12T01:02:02;95161.41;;;10.84;58.11
16793;BME280;8513;42.662;23.350;2023-05-12T01:04:27;95176.13;;;10.76;58.34
16793;BME280;8513;42.662;23.350;2023-05-12T01:07:07;95165.66;;;10.85;58.53
16793;BME280;8513;42.662;23.350;2023-05-12T01:09:35;95167.41;;;10.76;59.22
16793;BME280;8513;42.662;23.350;2023-05-12T01:12:00;95168.88;;;10.60;58.52
16793;BME280;8513;42.662;23.350;2023-05-12T01:14:26;95170.38;;;10.45;59.80
16793;BME280;8513;42.662;23.350;2023-05-12T01:16:54;95173.19;;;10.34;59.99
16793;BME280;8513;42.662;23.350;2023-05-12T01:19:53;95171.50;;;10.43;59.78
16793;BME280;8513;42.662;23.350;2023-05-12T01:22:20;95160.13;;;10.14;60.42
16793;BME280;8513;42.662;23.350;2023-05-12T01:25:06;95171.00;;;9.92;62.18
16793;BME280;8513;42.662;23.350;2023-05-12T01:27:32;95172.78;;;9.91;61.83
16793;BME280;8513;42.662;23.350;2023-05-12T01:30:00;95173.34;;;9.95;61.62
16793;BME280;8513;42.662;23.350;2023-05-12T01:32:27;95171.41;;;9.97;62.13
16793;BME280;8513;42.662;23.350;2023-05-12T01:34:53;95171.00;;;9.92;61.79
16793;BME280;8513;42.662;23.350;2023-05-12T01:37:19;95172.78;;;9.91;62.58
16793;BME280;8513;42.662;23.350;2023-05-12T01:39:44;95169.59;;;9.98;61.87
16793;BME280;8513;42.662;23.350;2023-05-12T01:42:10;95171.66;;;9.94;62.72
16793;BME280;8513;42.662;23.350;2023-05-12T01:44:35;95170.59;;;9.87;63.35
16793;BME280;8513;42.662;23.350;2023-05-12T01:47:01;95176.41;;;9.81;62.50
16793;BME280;8513;42.662;23.350;2023-05-12T01:49:27;95171.84;;;9.83;62.71
16793;BME280;8513;42.662;23.350;2023-05-12T01:51:52;95172.66;;;9.93;63.35
16793;BME280;8513;42.662;23.350;2023-05-12T01:54:18;95183.25;;;10.01;63.21
16793;BME280;8513;42.662;23.350;2023-05-12T01:56:43;95170.91;;;9.84;63.74
16793;BME280;8513;42.662;23.350;2023-05-12T01:59:09;95164.25;;;9.80;62.53
16793;BME280;8513;42.662;23.350;2023-05-12T02:01:34;95167.19;;;9.77;63.75
16793;BME280;8513;42.662;23.350;2023-05-12T02:04:01;95172.28;;;9.78;63.91
16793;BME280;8513;42.662;23.350;2023-05-12T02:06:28;95176.56;;;9.79;62.97
16793;BME280;8513;42.662;23.350;2023-05-12T02:08:53;95173.00;;;9.70;62.11
16793;BME280;8513;42.662;23.350;2023-05-12T02:11:19;95173.25;;;9.67;63.45
16793;BME280;8513;42.662;23.350;2023-05-12T02:13:45;95166.25;;;9.68;64.26
16793;BME280;8513;42.662;23.350;2023-05-12T02:16:11;95173.94;;;9.79;63.92
16793;BME280;8513;42.662;23.350;2023-05-12T02:18:37;95174.16;;;9.96;63.94
16793;BME280;8513;42.662;23.350;2023-05-12T02:21:02;95167.19;;;9.77;64.10
16793;BME280;8513;42.662;23.350;2023-05-12T02:23:28;95163.97;;;9.83;64.61
16793;BME280;8513;42.662;23.350;2023-05-12T02:25:53;95170.22;;;9.82;64.32
16793;BME280;8513;42.662;23.350;2023-05-12T02:28:19;95165.38;;;9.77;64.01
16793;BME280;8513;42.662;23.350;2023-05-12T02:30:48;95171.13;;;9.90;64.49
16793;BME280;8513;42.662;23.350;2023-05-12T02:33:15;95161.75;;;9.88;64.19
16793;BME280;8513;42.662;23.350;2023-05-12T02:35:40;95169.13;;;9.75;64.73
16793;BME280;8513;42.662;23.350;2023-05-12T02:38:06;95174.22;;;9.76;65.20
16793;BME280;8513;42.662;23.350;2023-05-12T02:40:31;95165.25;;;9.69;65.21
16793;BME280;8513;42.662;23.350;2023-05-12T02:42:57;95171.44;;;9.78;65.49
16793;BME280;8513;42.662;23.350;2023-05-12T02:45:22;95171.44;;;9.78;65.81
16793;BME280;8513;42.662;23.350;2023-05-12T02:47:47;95172.84;;;9.82;65.46
16793;BME280;8513;42.662;23.350;2023-05-12T02:50:13;95168.41;;;9.72;66.02
16793;BME280;8513;42.662;23.350;2023-05-12T02:52:39;95173.41;;;9.76;65.62
16793;BME280;8513;42.662;23.350;2023-05-12T02:55:04;95159.06;;;9.60;65.56
16793;BME280;8513;42.662;23.350;2023-05-12T02:57:30;95162.75;;;9.67;65.40
16793;BME280;8513;42.662;23.350;2023-05-12T03:00:01;95160.84;;;9.69;65.21
16793;BME280;8513;42.662;23.350;2023-05-12T03:02:30;95159.91;;;9.51;65.88
16793;BME280;8513;42.662;23.350;2023-05-12T03:04:55;95168.47;;;9.53;66.42
16793;BME280;8513;42.662;23.350;2023-05-12T03:07:21;95173.84;;;9.61;65.90
16793;BME280;8513;42.662;23.350;2023-05-12T03:09:47;95170.66;;;9.67;65.48
16793;BME280;8513;42.662;23.350;2023-05-12T03:12:12;95171.50;;;9.58;66.01
16793;BME280;8513;42.662;23.350;2023-05-12T03:14:38;95167.66;;;9.62;66.03
16793;BME280;8513;42.662;23.350;2023-05-12T03:17:03;95170.13;;;9.54;65.98
16793;BME280;8513;42.662;23.350;2023-05-12T03:19:29;95167.06;;;9.68;65.11
16793;BME280;8513;42.662;23.350;2023-05-12T03:21:54;95166.38;;;9.57;66.06
16793;BME280;8513;42.662;23.350;2023-05-12T03:24:20;95170.69;;;9.48;66.68
16793;BME280;8513;42.662;23.350;2023-05-12T03:26:45;95162.53;;;9.61;66.13
16793;BME280;8513;42.662;23.350;2023-05-12T03:29:11;95174.94;;;9.68;66.09
16793;BME280;8513;42.662;23.350;2023-05-12T03:31:36;95177.28;;;9.71;66.17
16793;BME280;8513;42.662;23.350;2023-05-12T03:34:02;95186.28;;;9.69;66.57
16793;BME280;8513;42.662;23.350;2023-05-12T03:36:27;95183.22;;;9.74;66.23
16793;BME280;8513;42.662;23.350;2023-05-12T03:38:52;95192.63;;;9.66;66.38
16793;BME280;8513;42.662;23.350;2023-05-12T03:41:18;95180.63;;;9.64;66.83
16793;BME280;8513;42.662;23.350;2023-05-12T03:43:43;95195.78;;;9.70;66.21
16793;BME280;8513;42.662;23.350;2023-05-12T03:46:09;95187.78;;;9.71;66.08
16793;BME280;8513;42.662;23.350;2023-05-12T03:48:34;95186.13;;;9.70;66.09
16793;BME280;8513;42.662;23.350;2023-05-12T03:51:00;95186.16;;;9.61;66.73
16793;BME280;8513;42.662;23.350;2023-05-12T03:53:25;95185.97;;;9.72;66.24
16793;BME280;8513;42.662;23.350;2023-05-12T03:55:51;95183.25;;;9.64;66.40
16793;BME280;8513;42.662;23.350;2023-05-12T03:58:16;95193.34;;;9.59;66.51
16793;BME280;8513;42.662;23.350;2023-05-12T04:00:42;95188.50;;;9.54;66.11
16793;BME280;8513;42.662;23.350;2023-05-12T04:03:07;95187.66;;;9.63;66.48
16793;BME280;8513;42.662;23.350;2023-05-12T04:05:33;95195.66;;;9.62;66.48
16793;BME280;8513;42.662;23.350;2023-05-12T04:07:59;95197.88;;;9.66;66.11
16793;BME280;8513;42.662;23.350;2023-05-12T04:10:24;95199.69;;;9.56;66.85
16793;BME280;8513;42.662;23.350;2023-05-12T04:12:51;95191.28;;;9.62;66.69
16793;BME280;8513;42.662;23.350;2023-05-12T04:15:16;95204.13;;;9.65;66.25
16793;BME280;8513;42.662;23.350;2023-05-12T04:17:41;95205.47;;;9.69;66.49
16793;BME280;8513;42.662;23.350;2023-05-12T04:20:07;95207.16;;;9.70;66.51
16793;BME280;8513;42.662;23.350;2023-05-12T04:22:33;95201.59;;;9.74;66.44
16793;BME280;8513;42.662;23.350;2023-05-12T04:24:58;95202.56;;;9.72;65.96
16793;BME280;8513;42.662;23.350;2023-05-12T04:27:24;95204.47;;;9.80;65.92
16793;BME280;8513;42.662;23.350;2023-05-12T04:29:49;95207.94;;;9.81;65.97
16793;BME280;8513;42.662;23.350;2023-05-12T04:32:15;95206.16;;;9.71;66.39
16793;BME280;8513;42.662;23.350;2023-05-12T04:34:41;95206.16;;;9.71;65.70
16793;BME280;8513;42.662;23.350;2023-05-12T04:37:06;95206.28;;;9.80;65.66
16793;BME280;8513;42.662;23.350;2023-05-12T04:39:32;95202.97;;;9.78;65.58
16793;BME280;8513;42.662;23.350;2023-05-12T04:41:59;95205.41;;;9.89;65.76
16793;BME280;8513;42.662;23.350;2023-05-12T04:44:26;95200.84;;;9.91;65.83
16793;BME280;8513;42.662;23.350;2023-05-12T04:46:51;95196.88;;;9.77;66.06
16793;BME280;8513;42.662;23.350;2023-05-12T04:49:20;95200.97;;;9.99;65.10
16793;BME280;8513;42.662;23.350;2023-05-12T04:51:46;95204.63;;;9.79;65.80
16793;BME280;8513;42.662;23.350;2023-05-12T04:54:11;95203.06;;;9.86;65.51
16793;BME280;8513;42.662;23.350;2023-05-12T04:56:37;95209.41;;;9.93;65.63
16793;BME280;8513;42.662;23.350;2023-05-12T04:59:02;95209.84;;;9.88;65.76
16793;BME280;8513;42.662;23.350;2023-05-12T05:01:28;95222.63;;;9.74;66.48
16793;BME280;8513;42.662;23.350;2023-05-12T05:03:53;95217.19;;;9.85;66.32
16793;BME280;8513;42.662;23.350;2023-05-12T05:06:19;95210.81;;;9.87;65.94
16793;BME280;8513;42.662;23.350;2023-05-12T05:08:44;95215.47;;;10.03;64.95
16793;BME280;8513;42.662;23.350;2023-05-12T05:11:10;95201.84;;;9.90;65.21
16793;BME280;8513;42.662;23.350;2023-05-12T05:13:35;95204.28;;;10.01;65.32
16793;BME280;8513;42.662;23.350;2023-05-12T05:16:01;95211.69;;;10.15;65.04
16793;BME280;8513;42.662;23.350;2023-05-12T05:18:26;95210.72;;;10.16;64.98
16793;BME280;8513;42.662;23.350;2023-05-12T05:20:53;95209.81;;;9.98;65.70
16793;BME280;8513;42.662;23.350;2023-05-12T05:23:19;95218.19;;;9.64;66.83
16793;BME280;8513;42.662;23.350;2023-05-12T05:25:44;95213.88;;;9.83;66.62
16793;BME280;8513;42.662;23.350;2023-05-12T05:28:10;95225.47;;;9.80;66.10
16793;BME280;8513;42.662;23.350;2023-05-12T05:30:35;95215.38;;;9.95;65.79
16793;BME280;8513;42.662;23.350;2023-05-12T05:33:00;95213.84;;;9.92;65.74
16793;BME280;8513;42.662;23.350;2023-05-12T05:35:26;95218.94;;;10.04;65.31
16793;BME280;8513;42.662;23.350;2023-05-12T05:37:51;95218.22;;;10.11;64.86
16793;BME280;8513;42.662;23.350;2023-05-12T05:40:18;95223.56;;;10.20;64.72
16793;BME280;8513;42.662;23.350;2023-05-12T05:42:44;95222.31;;;10.24;64.80
16793;BME280;8513;42.662;23.350;2023-05-12T05:45:10;95225.50;;;10.18;65.10
16793;BME280;8513;42.662;23.350;2023-05-12T05:47:36;95230.47;;;10.30;64.35
16793;BME280;8513;42.662;23.350;2023-05-12T05:50:02;95220.19;;;10.00;65.48
16793;BME280;8513;42.662;23.350;2023-05-12T05:52:28;95219.84;;;10.12;65.51
16793;BME280;8513;42.662;23.350;2023-05-12T05:54:53;95228.72;;;10.11;65.40
16793;BME280;8513;42.662;23.350;2023-05-12T05:57:19;95225.69;;;10.16;65.30
16793;BME280;8513;42.662;23.350;2023-05-12T05:59:45;95220.38;;;10.26;64.48
16793;BME280;8513;42.662;23.350;2023-05-12T06:02:10;95231.47;;;10.29;64.66
16793;BME280;8513;42.662;23.350;2023-05-12T06:04:36;95221.44;;;10.43;63.88
16793;BME280;8513;42.662;23.350;2023-05-12T06:07:01;95221.28;;;10.44;64.03
16793;BME280;8513;42.662;23.350;2023-05-12T06:09:27;95221.84;;;10.48;64.03
16793;BME280;8513;42.662;23.350;2023-05-12T06:11:52;95225.00;;;10.51;63.78
16793;BME280;8513;42.662;23.350;2023-05-12T06:14:18;95231.91;;;10.52;63.58
16793;BME280;8513;42.662;23.350;2023-05-12T06:16:43;95227.22;;;10.46;63.30
16793;BME280;8513;42.662;23.350;2023-05-12T06:19:08;95236.94;;;10.46;63.69
16793;BME280;8513;42.662;23.350;2023-05-12T06:21:34;95235.25;;;10.45;63.57
16793;BME280;8513;42.662;23.350;2023-05-12T06:23:59;95242.72;;;10.49;63.33
16793;BME280;8513;42.662;23.350;2023-05-12T06:26:25;95225.91;;;10.60;62.79
16793;BME280;8513;42.662;23.350;2023-05-12T06:28:50;95238.53;;;10.56;62.96
16793;BME280;8513;42.662;23.350;2023-05-12T06:31:15;95238.75;;;10.63;62.58
16793;BME280;8513;42.662;23.350;2023-05-12T06:33:41;95243.72;;;10.66;62.61
16793;BME280;8513;42.662;23.350;2023-05-12T06:36:06;95247.72;;;10.70;61.86
16793;BME280;8513;42.662;23.350;2023-05-12T06:38:32;95246.66;;;10.63;62.53
16793;BME280;8513;42.662;23.350;2023-05-12T06:40:58;95242.22;;;10.64;62.11
16793;BME280;8513;42.662;23.350;2023-05-12T06:43:23;95250.69;;;10.57;62.15
16793;BME280;8513;42.662;23.350;2023-05-12T06:45:49;95250.75;;;10.75;61.79
16793;BME280;8513;42.662;23.350;2023-05-12T06:48:14;95251.19;;;10.71;61.60
16793;BME280;8513;42.662;23.350;2023-05-12T06:50:40;95251.88;;;10.73;61.50
16793;BME280;8513;42.662;23.350;2023-05-12T06:53:06;95269.78;;;10.59;62.06
16793;BME280;8513;42.662;23.350;2023-05-12T06:55:32;95251.69;;;10.56;61.81
16793;BME280;8513;42.662;23.350;2023-05-12T06:57:58;95256.78;;;10.58;62.33
16793;BME280;8513;42.662;23.350;2023-05-12T07:00:24;95245.91;;;10.71;61.65
16793;BME280;8513;42.662;23.350;2023-05-12T07:02:50;95253.81;;;10.71;61.46
16793;BME280;8513;42.662;23.350;2023-05-12T07:05:16;95255.31;;;10.73;61.81
16793;BME280;8513;42.662;23.350;2023-05-12T07:07:43;95248.34;;;10.82;60.96
16793;BME280;8513;42.662;23.350;2023-05-12T07:10:09;95260.63;;;10.64;61.24
16793;BME280;8513;42.662;23.350;2023-05-12T07:12:34;95258.28;;;10.60;60.90
16793;BME280;8513;42.662;23.350;2023-05-12T07:15:00;95253.50;;;10.74;60.39
16793;BME280;8513;42.662;23.350;2023-05-12T07:17:25;95249.38;;;10.71;60.25
16793;BME280;8513;42.662;23.350;2023-05-12T07:19:50;95249.66;;;10.68;60.29
16793;BME280;8513;42.662;23.350;2023-05-12T07:22:17;95261.97;;;10.77;60.45
16793;BME280;8513;42.662;23.350;2023-05-12T07:24:42;95264.09;;;10.92;59.51
16793;BME280;8513;42.662;23.350;2023-05-12T07:27:08;95268.25;;;10.85;59.61
16793;BME280;8513;42.662;23.350;2023-05-12T07:29:33;95265.41;;;10.78;59.43
16793;BME280;8513;42.662;23.350;2023-05-12T07:31:59;95265.63;;;10.85;59.62
16793;BME280;8513;42.662;23.350;2023-05-12T07:34:24;95265.00;;;11.00;60.21
16793;BME280;8513;42.662;23.350;2023-05-12T07:36:50;95259.13;;;10.89;60.81
16793;BME280;8513;42.662;23.350;2023-05-12T07:39:15;95261.47;;;11.10;61.04
16793;BME280;8513;42.662;23.350;2023-05-12T07:41:43;95251.84;;;11.18;60.62
16793;BME280;8513;42.662;23.350;2023-05-12T07:44:09;95259.69;;;11.28;60.11
16793;BME280;8513;42.662;23.350;2023-05-12T07:46:34;95260.59;;;11.37;59.29
16793;BME280;8513;42.662;23.350;2023-05-12T07:49:01;95265.31;;;11.33;59.33
16793;BME280;8513;42.662;23.350;2023-05-12T07:51:26;95262.31;;;11.28;60.40
16793;BME280;8513;42.662;23.350;2023-05-12T07:53:52;95260.41;;;11.38;60.00
16793;BME280;8513;42.662;23.350;2023-05-12T07:56:19;95259.53;;;11.47;61.06
16793;BME280;8513;42.662;23.350;2023-05-12T07:58:46;95250.13;;;11.63;60.86
16793;BME280;8513;42.662;23.350;2023-05-12T08:01:11;95256.94;;;11.91;60.28
16793;BME280;8513;42.662;23.350;2023-05-12T08:03:37;95258.44;;;11.94;59.09
16793;BME280;8513;42.662;23.350;2023-05-12T08:06:03;95256.13;;;12.17;58.22
16793;BME280;8513;42.662;23.350;2023-05-12T08:08:32;95258.75;;;12.17;57.85
16793;BME280;8513;42.662;23.350;2023-05-12T08:10:57;95253.06;;;12.30;56.68
16793;BME280;8513;42.662;23.350;2023-05-12T08:13:22;95261.19;;;12.36;56.69
16793;BME280;8513;42.662;23.350;2023-05-12T08:15:48;95259.25;;;12.47;57.15
16793;BME280;8513;42.662;23.350;2023-05-12T08:18:14;95258.13;;;12.49;56.52
16793;BME280;8513;42.662;23.350;2023-05-12T08:20:40;95253.38;;;12.61;56.09
16793;BME280;8513;42.662;23.350;2023-05-12T08:23:05;95257.38;;;12.65;55.80
16793;BME280;8513;42.662;23.350;2023-05-12T08:25:31;95252.47;;;12.78;54.66
16793;BME280;8513;42.662;23.350;2023-05-12T08:27:59;95248.66;;;12.73;54.66
16793;BME280;8513;42.662;23.350;2023-05-12T08:30:25;95260.88;;;12.82;54.53
16793;BME280;8513;42.662;23.350;2023-05-12T08:32:52;95259.16;;;12.56;55.44
16793;BME280;8513;42.662;23.350;2023-05-12T08:35:17;95261.78;;;12.56;55.92
16793;BME280;8513;42.662;23.350;2023-05-12T08:37:43;95255.69;;;12.64;54.74
16793;BME280;8513;42.662;23.350;2023-05-12T08:40:14;95254.69;;;12.57;54.56
16793;BME280;8513;42.662;23.350;2023-05-12T08:45:43;95258.56;;;12.79;53.74
16793;BME280;8513;42.662;23.350;2023-05-12T08:48:09;95258.25;;;12.82;53.77
16793;BME280;8513;42.662;23.350;2023-05-12T08:50:35;95252.13;;;12.73;54.17
16793;BME280;8513;42.662;23.350;2023-05-12T08:53:10;95249.03;;;12.86;53.69
16793;BME280;8513;42.662;23.350;2023-05-12T08:55:38;95252.53;;;12.95;53.13
16793;BME280;8513;42.662;23.350;2023-05-12T08:58:06;95259.00;;;13.09;52.33
16793;BME280;8513;42.662;23.350;2023-05-12T09:00:33;95252.38;;;12.96;52.09
16793;BME280;8513;42.662;23.350;2023-05-12T09:03:01;95261.44;;;12.94;52.33
16793;BME280;8513;42.662;23.350;2023-05-12T09:05:29;95252.53;;;12.95;53.00
16793;BME280;8513;42.662;23.350;2023-05-12T09:07:55;95243.53;;;12.71;53.49
16793;BME280;8513;42.662;23.350;2023-05-12T09:10:23;95253.44;;;12.77;53.15
16793;BME280;8513;42.662;23.350;2023-05-12T09:12:51;95249.91;;;13.03;53.00
16793;BME280;8513;42.662;23.350;2023-05-12T09:15:19;95243.63;;;13.04;52.09
16793;BME280;8513;42.662;23.350;2023-05-12T09:17:46;95248.41;;;13.00;52.18
16793;BME280;8513;42.662;23.350;2023-05-12T09:20:12;95238.63;;;12.85;52.47
16793;BME280;8513;42.662;23.350;2023-05-12T09:22:39;95246.22;;;12.88;52.48
16793;BME280;8513;42.662;23.350;2023-05-12T09:25:25;95246.25;;;13.04;51.79
16793;BME280;8513;42.662;23.350;2023-05-12T09:27:54;95234.38;;;13.00;51.74
16793;BME280;8513;42.662;23.350;2023-05-12T09:30:30;95248.25;;;13.02;51.39
16793;BME280;8513;42.662;23.350;2023-05-12T09:33:10;95239.66;;;12.92;51.44
16793;BME280;8513;42.662;23.350;2023-05-12T09:35:37;95232.09;;;13.05;51.24
16793;BME280;8513;42.662;23.350;2023-05-12T09:38:08;95228.47;;;13.06;50.72
16793;BME280;8513;42.662;23.350;2023-05-12T09:40:33;95233.56;;;12.91;50.81
16793;BME280;8513;42.662;23.350;2023-05-12T09:42:59;95227.09;;;12.86;50.53
16793;BME280;8513;42.662;23.350;2023-05-12T09:45:38;95236.34;;;12.90;51.22
16793;BME280;8513;42.662;23.350;2023-05-12T09:48:09;95224.63;;;12.92;51.70
16793;BME280;8513;42.662;23.350;2023-05-12T09:50:47;95241.31;;;13.09;50.50
16793;BME280;8513;42.662;23.350;2023-05-12T09:53:13;95239.88;;;13.23;50.28
16793;BME280;8513;42.662;23.350;2023-05-12T09:55:45;95233.66;;;13.32;49.00
16793;BME280;8513;42.662;23.350;2023-05-12T09:58:14;95236.97;;;13.34;48.26
16793;BME280;8513;42.662;23.350;2023-05-12T10:00:40;95233.28;;;13.19;48.67
16793;BME280;8513;42.662;23.350;2023-05-12T10:03:11;95225.03;;;13.22;48.19
16793;BME280;8513;42.662;23.350;2023-05-12T10:05:45;95234.44;;;13.24;48.06
16793;BME280;8513;42.662;23.350;2023-05-12T10:08:15;95219.38;;;13.00;48.36
16793;BME280;8513;42.662;23.350;2023-05-12T10:10:43;95211.31;;;13.10;48.77
16793;BME280;8513;42.662;23.350;2023-05-12T10:13:12;95214.31;;;13.23;48.64
16793;BME280;8513;42.662;23.350;2023-05-12T10:15:39;95219.78;;;13.46;47.87
16793;BME280;8513;42.662;23.350;2023-05-12T10:18:05;95213.19;;;13.42;48.29
16793;BME280;8513;42.662;23.350;2023-05-12T10:20:31;95216.84;;;13.66;47.17
16793;BME280;8513;42.662;23.350;2023-05-12T10:22:58;95201.81;;;13.66;46.65
16793;BME280;8513;42.662;23.350;2023-05-12T10:25:25;95222.59;;;13.94;46.54
16793;BME280;8513;42.662;23.350;2023-05-12T10:27:54;95207.91;;;13.75;46.97
16793;BME280;8513;42.662;23.350;2023-05-12T10:30:20;95216.97;;;13.89;47.90
16793;BME280;8513;42.662;23.350;2023-05-12T10:32:46;95214.31;;;13.89;47.57
16793;BME280;8513;42.662;23.350;2023-05-12T10:35:12;95205.22;;;14.08;46.36
16793;BME280;8513;42.662;23.350;2023-05-12T10:37:38;95197.97;;;14.02;46.72
16793;BME280;8513;42.662;23.350;2023-05-12T10:40:06;95197.31;;;14.47;46.16
16793;BME280;8513;42.662;23.350;2023-05-12T10:42:40;95196.69;;;14.37;46.07
16793;BME280;8513;42.662;23.350;2023-05-12T10:45:17;95197.69;;;14.52;46.39
16793;BME280;8513;42.662;23.350;2023-05-12T10:47:43;95195.50;;;14.48;46.48
16793;BME280;8513;42.662;23.350;2023-05-12T10:50:09;95194.59;;;14.72;45.65
16793;BME280;8513;42.662;23.350;2023-05-12T10:52:54;95188.88;;;14.52;45.90
16793;BME280;8513;42.662;23.350;2023-05-12T10:55:35;95196.44;;;14.71;45.59
16793;BME280;8513;42.662;23.350;2023-05-12T10:58:10;95189.06;;;14.90;45.17
16793;BME280;8513;42.662;23.350;2023-05-12T11:00:49;95192.44;;;15.07;44.99
16793;BME280;8513;42.662;23.350;2023-05-12T11:03:16;95193.84;;;15.17;44.48
16793;BME280;8513;42.662;23.350;2023-05-12T11:05:43;95205.63;;;15.38;44.38
16793;BME280;8513;42.662;23.350;2023-05-12T11:08:09;95198.22;;;15.33;44.35
16793;BME280;8513;42.662;23.350;2023-05-12T11:10:34;95193.72;;;15.34;44.20
16793;BME280;8513;42.662;23.350;2023-05-12T11:13:01;95197.25;;;15.26;43.82
16793;BME280;8513;42.662;23.350;2023-05-12T11:15:27;95205.03;;;15.28;44.27
16793;BME280;8513;42.662;23.350;2023-05-12T11:17:52;95205.69;;;15.30;44.01
16793;BME280;8513;42.662;23.350;2023-05-12T11:20:22;95207.97;;;15.10;43.27
16793;BME280;8513;42.662;23.350;2023-05-12T11:22:48;95195.56;;;15.10;43.39
16793;BME280;8513;42.662;23.350;2023-05-12T11:25:13;95202.38;;;15.05;43.56
16793;BME280;8513;42.662;23.350;2023-05-12T11:27:48;95202.81;;;15.16;43.78
16793;BME280;8513;42.662;23.350;2023-05-12T11:30:14;95211.09;;;15.13;43.19
16793;BME280;8513;42.662;23.350;2023-05-12T11:32:40;95205.88;;;15.28;43.08
16793;BME280;8513;42.662;23.350;2023-05-12T11:35:10;95204.94;;;15.21;43.26
16793;BME280;8513;42.662;23.350;2023-05-12T11:37:37;95216.09;;;15.08;43.12
16793;BME280;8513;42.662;23.350;2023-05-12T11:40:20;95213.09;;;14.80;43.83
16793;BME280;8513;42.662;23.350;2023-05-12T11:42:48;95211.53;;;14.63;44.00
16793;BME280;8513;42.662;23.350;2023-05-12T11:45:26;95216.34;;;14.43;44.22
16793;BME280;8513;42.662;23.350;2023-05-12T11:48:07;95213.19;;;14.47;43.69
16793;BME280;8513;42.662;23.350;2023-05-12T11:50:36;95205.88;;;14.66;43.19
16793;BME280;8513;42.662;23.350;2023-05-12T11:53:03;95206.34;;;14.69;43.69
16793;BME280;8513;42.662;23.350;2023-05-12T11:55:28;95199.53;;;14.75;44.03
16793;BME280;8513;42.662;23.350;2023-05-12T11:58:00;95205.38;;;15.02;43.69
16793;BME280;8513;42.662;23.350;2023-05-12T12:00:27;95203.16;;;14.82;43.44
16793;BME280;8513;42.662;23.350;2023-05-12T12:03:13;95211.09;;;14.82;43.83
16793;BME280;8513;42.662;23.350;2023-05-12T12:05:40;95204.03;;;15.06;43.42
16793;BME280;8513;42.662;23.350;2023-05-12T12:08:14;95207.81;;;15.11;43.88
16793;BME280;8513;42.662;23.350;2023-05-12T12:10:44;95209.06;;;14.92;43.25
16793;BME280;8513;42.662;23.350;2023-05-12T12:13:10;95212.06;;;14.89;43.38
16793;BME280;8513;42.662;23.350;2023-05-12T12:15:35;95210.50;;;15.03;42.92
16793;BME280;8513;42.662;23.350;2023-05-12T12:18:01;95208.91;;;15.17;42.14
16793;BME280;8513;42.662;23.350;2023-05-12T12:20:26;95215.59;;;15.05;42.34
16793;BME280;8513;42.662;23.350;2023-05-12T12:22:52;95222.16;;;15.17;42.34
16793;BME280;8513;42.662;23.350;2023-05-12T12:25:19;95209.53;;;15.27;42.49
16793;BME280;8513;42.662;23.350;2023-05-12T12:27:45;95217.53;;;15.42;41.80
16793;BME280;8513;42.662;23.350;2023-05-12T12:30:11;95219.09;;;15.28;42.10
16793;BME280;8513;42.662;23.350;2023-05-12T12:32:37;95216.47;;;15.28;41.99
16793;BME280;8513;42.662;23.350;2023-05-12T12:35:02;95207.38;;;15.22;41.82
16793;BME280;8513;42.662;23.350;2023-05-12T12:37:31;95213.91;;;15.12;42.25
16793;BME280;8513;42.662;23.350;2023-05-12T12:39:56;95207.38;;;15.22;42.37
16793;BME280;8513;42.662;23.350;2023-05-12T12:42:22;95213.06;;;15.42;41.47
16793;BME280;8513;42.662;23.350;2023-05-12T12:44:48;95209.03;;;15.47;41.50
16793;BME280;8513;42.662;23.350;2023-05-12T12:47:15;95212.50;;;15.47;41.34
16793;BME280;8513;42.662;23.350;2023-05-12T12:49:41;95203.00;;;15.38;41.63
16793;BME280;8513;42.662;23.350;2023-05-12T12:52:06;95217.28;;;15.29;41.29
16793;BME280;8513;42.662;23.350;2023-05-12T12:54:32;95220.63;;;15.22;41.44
16793;BME280;8513;42.662;23.350;2023-05-12T12:56:57;95208.81;;;15.33;41.55
16793;BME280;8513;42.662;23.350;2023-05-12T12:59:23;95206.94;;;15.19;41.22
16793;BME280;8513;42.662;23.350;2023-05-12T13:01:48;95204.81;;;15.37;41.27
16793;BME280;8513;42.662;23.350;2023-05-12T13:04:14;95208.34;;;15.30;40.49